Time;durP1;ratioP1;P1;durP2;ratioP2;P2;SDS_P1;SDS_P2;PMS_P1;PMS_P2;Temp;Humidity;BMP_temperature;BMP_pressure;BME280_temperature;BME280_humidity;BME280_pressure;Samples;Min_cycle;Max_cycle;Signal;HPM_P1;HPM_P2
2021/09/10 00:05:45;;;;;;;;;0.00;0.00;;;;;22.86;61.06;100826.38;4932022;28;45290;-85
2021/09/10 00:24:57;;;;;;;;;0.00;0.00;;;;;21.52;61.22;100610.75;5095451;27;46598;-87
2021/09/10 00:27:31;;;;;;;;;0.00;0.00;;;;;22.83;60.88;100831.81;5085307;27;45325;-85
2021/09/10 00:34:41;;;;;;;;;;;;;;;;;;;;;
2021/09/10 00:37:32;;;;;;;;;0.00;0.00;;;;;21.76;61.89;100695.50;4998388;28;75569;-86
2021/09/10 00:40:21;;;;;;;;;0.00;0.00;;;;;21.35;62.20;100645.81;4991978;28;45475;-86
2021/09/10 00:43:10;;;;;;;;;0.00;0.00;;;;;21.23;62.07;100617.19;5051177;28;45492;-85
2021/09/10 00:46:36;;;;;;;;;0.00;0.00;;;;;22.46;62.05;100813.81;5054553;28;45174;-89
2021/09/10 00:49:17;;;;;;;;;0.00;0.00;;;;;21.96;61.96;100724.78;4989176;28;47028;-86
2021/09/10 00:51:43;;;;;;;;;0.00;0.00;;;;;21.59;62.08;100668.78;5099100;27;45500;-87
2021/09/10 00:54:47;;;;;;;;;0.25;0.00;;;;;21.40;62.20;100642.97;5063874;28;45575;-89
2021/09/10 00:57:14;;;;;;;;;0.00;0.00;;;;;21.51;62.03;100651.41;5002299;28;45627;-89
2021/09/10 01:00:08;;;;;;;;;0.00;0.00;;;;;21.44;62.18;100631.34;5001089;28;46066;-91
2021/09/10 01:02:43;;;;;;;;;0.00;0.00;;;;;21.36;62.12;100625.50;5010879;28;45476;-89
2021/09/10 01:06:16;;;;;;;;;0.00;0.00;;;;;21.68;61.83;100684.28;5012650;28;44730;-87
2021/09/10 01:12:55;;;;;;;;;0.00;0.00;;;;;22.59;61.92;100847.81;5008756;28;45511;-88
2021/09/10 01:22:53;;;;;;;;;0.00;0.00;;;;;22.65;62.39;100845.78;5021295;28;45297;-90
2021/09/10 01:33:27;;;;;;;;;0.00;0.00;;;;;22.48;62.56;100853.53;5072825;27;45691;-89
2021/09/10 01:37:06;;;;;;;;;0.00;0.00;;;;;22.49;62.75;100871.16;5095155;27;45795;-87
2021/09/10 01:43:36;;;;;;;;;0.00;0.00;;;;;21.52;62.90;100686.66;5084851;28;44796;-87
2021/09/10 01:46:28;;;;;;;;;0.25;0.00;;;;;22.51;62.88;100859.56;5075828;28;45484;-86
2021/09/10 01:49:12;;;;;;;;;0.00;0.00;;;;;21.66;62.15;100725.88;5063067;28;45675;-84
2021/09/10 01:55:17;;;;;;;;;0.00;0.00;;;;;20.86;63.00;100644.03;5082823;28;45580;-87
2021/09/10 02:05:46;;;;;;;;;0.00;0.00;;;;;22.17;63.16;100860.88;4983425;28;46125;-87
2021/09/10 02:08:21;;;;;;;;;0.00;0.00;;;;;21.29;63.31;100720.19;4994760;28;45389;-84
2021/09/10 02:11:05;;;;;;;;;0.00;0.00;;;;;21.46;63.11;100737.22;4988365;28;45313;-88
2021/09/10 02:13:48;;;;;;;;;0.00;0.00;;;;;21.38;63.60;100740.16;5068761;27;45467;-88
2021/09/10 02:16:24;;;;;;;;;0.25;0.00;;;;;21.31;63.92;100738.66;5086939;27;46873;-85
2021/09/10 02:25:36;;;;;;;;;0.00;0.00;;;;;21.26;63.75;100742.31;5105210;27;45243;-88
2021/09/10 02:28:02;;;;;;;;;0.00;0.00;;;;;21.54;63.93;100790.75;5072661;28;46821;-86
2021/09/10 02:30:52;;;;;;;;;0.00;0.00;;;;;21.45;64.09;100791.97;5067116;28;45485;-88
2021/09/10 02:33:29;;;;;;;;;0.00;0.00;;;;;20.64;64.32;100651.88;5060416;28;45545;-87
2021/09/10 02:36:01;;;;;;;;;0.00;0.00;;;;;20.90;63.67;100679.22;5086674;27;45303;-86
2021/09/10 02:42:21;;;;;;;;;2.00;0.00;;;;;21.25;63.73;100732.66;5074766;28;45374;-87
2021/09/10 02:45:52;;;;;;;;;;;;;;;;;;;;;
2021/09/10 02:48:21;;;;;;;;;0.00;0.00;;;;;20.89;63.88;100675.72;5062166;28;63272;-87
2021/09/10 02:51:12;;;;;;;;;0.00;0.00;;;;;22.08;63.86;100866.56;5046651;28;48496;-87
2021/09/10 02:54:35;;;;;;;;;;;;;;;;;;;;;
2021/09/10 02:57:41;;;;;;;;;0.00;0.00;;;;;21.73;63.57;100803.31;5062629;28;68238;-87
2021/09/10 03:00:51;;;;;;;;;0.00;0.00;;;;;20.81;63.52;100680.38;5042949;28;45501;-86
2021/09/10 03:04:47;;;;;;;;;;;;;;;;;;;;;
2021/09/10 03:07:27;;;;;;;;;1.00;0.00;;;;;21.64;64.52;100820.41;5055678;28;45681;-88
2021/09/10 03:16:56;;;;;;;;;0.00;0.00;;;;;21.17;64.23;100723.25;5087134;28;45786;-88
2021/09/10 03:20:03;;;;;;;;;;;;;;;;;;;;;
2021/09/10 03:23:15;;;;;;;;;0.00;0.00;;;;;21.97;64.13;100848.41;5016652;28;67217;-86
2021/09/10 03:28:57;;;;;;;;;0.00;0.00;;;;;21.11;64.69;100734.94;5044762;28;45422;-86
2021/09/10 03:31:43;;;;;;;;;0.00;0.00;;;;;21.83;64.70;100852.41;5023684;28;45581;-86
2021/09/10 03:34:17;;;;;;;;;0.00;0.00;;;;;21.84;64.96;100869.19;5006033;28;45374;-87
2021/09/10 03:37:29;;;;;;;;;0.00;0.00;;;;;21.74;64.92;100853.59;5025060;28;46973;-87
2021/09/10 03:40:34;;;;;;;;;;;;;;;;;;;;;
2021/09/10 03:43:55;;;;;;;;;;;;;;;;;;;;;
2021/09/10 03:46:23;;;;;;;;;0.00;0.00;;;;;21.64;64.83;100850.44;5044578;28;67956;-87
2021/09/10 03:49:21;;;;;;;;;0.00;0.00;;;;;20.23;65.28;100616.25;5028380;28;45356;-87
2021/09/10 03:51:56;;;;;;;;;;;;;;;;;;;;;
2021/09/10 03:55:06;;;;;;;;;0.00;0.00;;;;;21.47;66.08;100845.72;4948248;28;74427;-87
2021/09/10 03:57:44;;;;;;;;;0.00;0.00;;;;;20.32;66.29;100656.50;5031025;28;45311;-86
2021/09/10 04:01:20;;;;;;;;;0.00;0.00;;;;;20.34;65.70;100646.75;5026174;28;45592;-90
2021/09/10 04:04:30;;;;;;;;;0.00;0.00;;;;;20.82;65.91;100736.81;5018292;28;47139;-89
2021/09/10 04:07:29;;;;;;;;;;;;;;;;;;;;;
2021/09/10 04:10:09;;;;;;;;;0.00;0.00;;;;;20.99;66.41;100782.09;5079286;28;68746;-85
2021/09/10 04:12:45;;;;;;;;;0.75;0.00;;;;;20.59;66.29;100735.81;5067350;28;45263;-85
2021/09/10 04:15:28;;;;;;;;;0.00;0.00;;;;;19.92;66.94;100621.66;5069775;27;46740;-87
2021/09/10 04:18:03;;;;;;;;;0.00;0.00;;;;;20.47;66.77;100716.78;5088022;27;45487;-87
2021/09/10 04:20:29;;;;;;;;;1.00;0.00;;;;;20.58;66.77;100734.06;5091062;27;45299;-87
2021/09/10 04:22:54;;;;;;;;;0.00;0.00;;;;;20.29;66.99;100680.38;5091462;27;45299;-84
2021/09/10 04:25:38;;;;;;;;;0.00;0.00;;;;;20.64;67.05;100755.88;5105843;27;47513;-86
2021/09/10 04:31:29;;;;;;;;;0.00;0.00;;;;;21.23;67.11;100842.16;5095164;27;45396;-85
2021/09/10 04:34:26;;;;;;;;;0.00;0.00;;;;;19.93;66.96;100626.88;5089240;27;45263;-85
2021/09/10 04:37:01;;;;;;;;;0.00;0.00;;;;;20.57;67.05;100732.31;5084075;27;47032;-86
2021/09/10 04:39:57;;;;;;;;;0.00;0.00;;;;;20.57;66.47;100727.03;5084176;27;45322;-85
2021/09/10 04:42:26;;;;;;;;;0.00;0.00;;;;;20.06;66.85;100634.47;5080621;27;45451;-86
2021/09/10 04:45:28;;;;;;;;;;;;;;;;;;;;;
2021/09/10 04:48:27;;;;;;;;;;;;;;;;;;;;;
2021/09/10 04:51:32;;;;;;;;;0.50;0.00;;;;;21.02;66.14;100787.25;5058473;28;71985;-84
2021/09/10 04:55:22;;;;;;;;;0.00;0.00;;;;;20.32;66.43;100691.72;5033426;28;45431;-87
2021/09/10 05:01:44;;;;;;;;;0.00;0.00;;;;;21.37;66.43;100863.72;5032100;28;45646;-87
2021/09/10 05:04:44;;;;;;;;;0.00;0.00;;;;;20.70;66.05;100732.81;5032857;28;45660;-87
2021/09/10 05:11:07;;;;;;;;;1.00;0.00;;;;;20.38;65.82;100675.66;5040207;28;45532;-85
2021/09/10 05:13:48;;;;;;;;;;;;;;;;;;;;;
2021/09/10 05:17:23;;;;;;;;;0.00;0.00;;;;;21.27;65.65;100791.72;5009677;28;72355;-87
2021/09/10 05:20:32;;;;;;;;;0.00;0.00;;;;;21.76;64.86;100869.47;5008700;28;45827;-84
2021/09/10 05:34:11;;;;;;;;;;;;;;;;;;;;;
2021/09/10 05:37:34;;;;;;;;;1.00;0.00;;;;;21.64;65.05;100884.88;5102048;27;63888;-84
2021/09/10 05:43:36;;;;;;;;;0.00;0.00;;;;;21.01;65.27;100788.19;5047718;28;45384;-86
2021/09/10 05:46:45;;;;;;;;;0.00;0.00;;;;;21.40;64.91;100857.44;5062114;28;45162;-82
2021/09/10 05:49:16;;;;;;;;;0.00;0.00;;;;;20.81;65.01;100777.38;5016417;28;45406;-87
2021/09/10 05:52:19;;;;;;;;;0.00;0.00;;;;;20.29;64.82;100709.44;5044906;28;45598;-85
2021/09/10 05:55:10;;;;;;;;;0.00;0.00;;;;;21.24;65.32;100880.94;5058419;27;45473;-83
2021/09/10 05:57:36;;;;;;;;;0.00;0.00;;;;;21.07;65.11;100831.25;5094928;27;45571;-86
2021/09/10 06:00:10;;;;;;;;;0.00;0.00;;;;;21.12;64.94;100835.47;5073142;28;45383;-86
2021/09/10 06:02:35;;;;;;;;;0.00;0.00;;;;;20.65;64.71;100762.03;5090197;27;46762;-84
2021/09/10 06:05:08;;;;;;;;;0.00;0.00;;;;;20.59;65.05;100751.66;5093264;27;45524;-85
2021/09/10 06:07:52;;;;;;;;;0.00;0.00;;;;;21.14;64.79;100844.19;5091324;27;45417;-83
2021/09/10 06:10:46;;;;;;;;;0.00;0.00;;;;;21.14;65.21;100851.28;5087403;27;45566;-82
2021/09/10 06:13:53;;;;;;;;;0.00;0.00;;;;;20.33;65.27;100708.44;5091956;27;45725;-86
2021/09/10 06:23:48;;;;;;;;;0.00;0.00;;;;;20.36;64.85;100737.41;5086603;27;44756;-87
2021/09/10 06:27:06;;;;;;;;;0.00;0.00;;;;;21.57;65.29;100935.44;5040875;28;46627;-85
2021/09/10 06:30:20;;;;;;;;;0.00;0.00;;;;;21.64;65.32;100932.53;5004464;28;45413;-87
2021/09/10 06:32:59;;;;;;;;;0.00;0.00;;;;;21.03;65.17;100835.75;5026271;28;45554;-86
2021/09/10 06:35:36;;;;;;;;;1.00;0.00;;;;;20.25;65.36;100721.91;5068023;28;45379;-87
2021/09/10 06:38:24;;;;;;;;;0.00;0.00;;;;;20.96;65.21;100827.19;5065893;28;47295;-83
2021/09/10 06:41:24;;;;;;;;;0.00;0.00;;;;;21.39;64.91;100912.22;5065120;28;45512;-85
2021/09/10 06:51:28;;;;;;;;;0.00;0.00;;;;;20.13;65.57;100720.53;5091146;28;45390;-82
2021/09/10 06:54:04;;;;;;;;;0.00;0.00;;;;;21.57;65.52;100962.81;5096981;27;45474;-84
2021/09/10 06:57:06;;;;;;;;;;;;;;;;;;;;;
2021/09/10 06:59:44;;;;;;;;;0.00;0.00;;;;;21.02;65.55;100873.72;5070587;28;61714;-87
2021/09/10 07:02:22;;;;;;;;;0.00;0.00;;;;;20.57;65.61;100790.50;5069217;28;46938;-84
2021/09/10 07:04:50;;;;;;;;;0.50;0.00;;;;;21.69;65.42;100973.88;5068330;28;45387;-84
2021/09/10 07:11:35;;;;;;;;;0.00;0.00;;;;;21.69;65.67;100966.81;4951444;28;45256;-82
2021/09/10 07:14:24;;;;;;;;;1.00;1.00;;;;;21.16;65.76;100890.94;4985148;28;47056;-85
2021/09/10 07:16:49;;;;;;;;;1.00;0.00;;;;;20.22;66.10;100762.50;5071528;28;45442;-83
2021/09/10 07:19:18;;;;;;;;;0.00;0.00;;;;;20.59;65.60;100838.94;5094933;28;45489;-82
2021/09/10 07:22:04;;;;;;;;;0.00;0.00;;;;;20.26;66.16;100781.78;5074604;28;45407;-83
2021/09/10 07:25:19;;;;;;;;;;;;;;;;;;;;;
2021/09/10 07:28:10;;;;;;;;;0.00;0.00;;;;;21.43;66.77;100986.22;5054678;27;71749;-83
2021/09/10 07:30:56;;;;;;;;;0.00;0.00;;;;;20.61;66.15;100855.63;5119226;27;45493;-83
2021/09/10 07:33:43;;;;;;;;;0.00;0.00;;;;;20.80;66.55;100884.13;5082069;27;45465;-83
2021/09/10 07:36:38;;;;;;;;;0.00;0.00;;;;;20.07;66.29;100761.22;5084211;27;48164;-82
2021/09/10 07:39:03;;;;;;;;;0.00;0.00;;;;;20.44;66.61;100829.69;5083706;27;45977;-81
2021/09/10 07:41:59;;;;;;;;;0.50;0.50;;;;;21.47;66.57;100977.28;5118959;27;45361;-82
2021/09/10 07:44:59;;;;;;;;;;;;;;;;;;;;;
2021/09/10 07:48:17;;;;;;;;;0.25;0.00;;;;;20.85;65.80;100880.41;5079419;28;74808;-82
2021/09/10 07:50:42;;;;;;;;;0.00;0.00;;;;;21.46;65.70;100946.41;5053130;28;45673;-81
2021/09/10 07:53:56;;;;;;;;;;;;;;;;;;;;;
2021/09/10 07:56:50;;;;;;;;;0.00;0.00;;;;;21.84;65.55;100999.88;5078780;28;62979;-82
2021/09/10 07:59:15;;;;;;;;;0.00;0.00;;;;;21.21;65.33;100894.28;5059557;28;46480;-84
2021/09/10 08:02:10;;;;;;;;;0.00;0.00;;;;;20.73;64.92;100814.66;5061533;28;45442;-82
2021/09/10 08:05:14;;;;;;;;;0.00;0.00;;;;;21.24;65.09;100894.19;5076760;28;45552;-83
2021/09/10 08:08:34;;;;;;;;;0.00;0.00;;;;;20.97;65.53;100851.84;5056060;28;45394;-83
2021/09/10 08:11:26;;;;;;;;;0.00;0.00;;;;;21.97;64.88;101016.22;5047294;28;46285;-83
2021/09/10 08:15:03;;;;;;;;;0.00;0.00;;;;;21.41;65.47;100941.28;5058586;28;45322;-85
2021/09/10 08:24:24;;;;;;;;;0.00;0.00;;;;;21.82;65.20;101017.63;4960221;28;45487;-83
2021/09/10 08:30:55;;;;;;;;;0.00;0.00;;;;;21.93;64.81;100995.19;4980172;28;45494;-81
2021/09/10 08:33:50;;;;;;;;;;;;;;;;;;;;;
2021/09/10 08:36:23;;;;;;;;;0.00;0.00;;;;;21.63;63.96;100909.59;5098412;27;74344;-81
2021/09/10 08:42:39;;;;;;;;;0.00;0.00;;;;;21.48;63.29;100867.78;5020316;28;45415;-83
2021/09/10 08:45:13;;;;;;;;;0.00;0.00;;;;;22.43;62.38;101035.84;5002165;28;45508;-82
2021/09/10 08:48:07;;;;;;;;;0.00;0.00;;;;;22.46;62.32;101025.09;5003869;28;46599;-84
2021/09/10 08:51:03;;;;;;;;;0.00;0.00;;;;;22.52;62.99;101032.84;5020296;28;45453;-84
2021/09/10 08:54:03;;;;;;;;;0.00;0.00;;;;;21.47;62.03;100842.22;5027861;28;45539;-82
2021/09/10 08:57:10;;;;;;;;;0.00;0.00;;;;;21.99;61.52;100904.88;5003445;28;45668;-83
2021/09/10 09:00:17;;;;;;;;;0.00;0.00;;;;;22.86;61.68;101044.88;5019061;28;46204;-83
2021/09/10 09:03:23;;;;;;;;;0.00;0.00;;;;;22.91;60.85;101036.75;5076230;27;45252;-83
2021/09/10 09:06:33;;;;;;;;;0.00;0.00;;;;;22.19;60.83;100933.28;5084798;27;45575;-84
2021/09/10 09:08:59;;;;;;;;;0.00;0.00;;;;;22.75;60.84;101039.97;4993700;27;45403;-82
2021/09/10 09:11:25;;;;;;;;;0.00;0.00;;;;;22.34;61.06;100974.25;5093019;27;46779;-81
2021/09/10 09:14:28;;;;;;;;;1.00;0.00;;;;;22.65;61.03;101031.50;5087588;27;45325;-83
2021/09/10 09:17:22;;;;;;;;;0.00;0.00;;;;;22.04;61.51;100929.41;5109951;27;44842;-80
2021/09/10 09:34:10;;;;;;;;;0.00;0.00;;;;;21.87;60.33;100850.53;5106708;27;45219;-87
2021/09/10 09:36:51;;;;;;;;;0.00;0.00;;;;;22.65;59.64;100962.53;5077113;28;45657;-83
2021/09/10 09:39:16;;;;;;;;;0.50;0.00;;;;;22.20;59.60;100865.22;5068817;27;46043;-87
2021/09/10 09:41:47;;;;;;;;;0.00;0.00;;;;;22.20;59.74;100858.13;5088905;27;45209;-83
2021/09/10 09:44:17;;;;;;;;;0.00;0.00;;;;;22.19;59.02;100851.09;5068692;27;45339;-83
2021/09/10 09:46:46;;;;;;;;;0.00;0.00;;;;;22.67;58.44;100930.63;5100138;27;46938;-82
2021/09/10 09:49:17;;;;;;;;;0.00;0.00;;;;;23.51;58.71;101053.88;5063515;28;45504;-82
2021/09/10 09:52:02;;;;;;;;;0.50;0.00;;;;;23.06;57.95;100987.47;5116858;27;44801;-79
2021/09/10 09:54:28;;;;;;;;;0.00;0.00;;;;;23.35;58.43;101040.31;5106889;27;44907;-80
2021/09/10 09:56:57;;;;;;;;;0.00;0.00;;;;;23.13;58.29;101019.97;5073529;28;47362;-86
2021/09/10 09:59:25;;;;;;;;;0.00;0.00;;;;;22.93;58.50;100995.06;5068609;28;45467;-86
2021/09/10 10:01:56;;;;;;;;;1.00;0.00;;;;;22.07;58.57;100833.88;5070563;28;45465;-87
2021/09/10 10:04:33;;;;;;;;;0.00;0.00;;;;;22.63;58.73;100926.38;5088022;27;45747;-88
2021/09/10 10:07:11;;;;;;;;;0.00;0.00;;;;;22.93;58.04;100989.75;5105063;27;45711;-83
2021/09/10 10:09:49;;;;;;;;;2.00;0.00;;;;;23.02;58.92;100988.53;5064126;28;45680;-85
2021/09/10 10:16:38;;;;;;;;;0.00;0.00;;;;;22.62;58.11;100884.84;5053742;28;45465;-86
2021/09/10 10:19:24;;;;;;;;;0.00;0.00;;;;;23.76;57.11;101042.22;5015479;28;45899;-84
2021/09/10 10:22:09;;;;;;;;;;;;;;;;;;;;;
2021/09/10 10:24:58;;;;;;;;;0.00;0.00;;;;;22.94;56.88;100882.66;5087115;27;68809;-81
2021/09/10 10:27:46;;;;;;;;;0.00;0.00;;;;;23.96;56.56;101036.06;5096831;28;44779;-86
2021/09/10 10:30:18;;;;;;;;;0.00;0.00;;;;;23.97;56.65;101024.50;5105607;27;46050;-85
2021/09/10 10:32:53;;;;;;;;;0.25;0.00;;;;;23.26;56.13;100911.44;5076907;28;45291;-84
2021/09/10 10:35:31;;;;;;;;;0.25;0.00;;;;;24.13;56.02;101031.84;5067125;27;45239;-82
2021/09/10 10:38:08;;;;;;;;;1.00;0.00;;;;;23.41;54.23;100876.31;5073813;28;45470;-84
2021/09/10 10:40:40;;;;;;;;;0.00;0.00;;;;;24.39;54.20;101035.13;5081396;27;46265;-82
2021/09/10 10:43:46;;;;;;;;;;;;;;;;;;;;;
2021/09/10 10:46:59;;;;;;;;;0.00;0.00;;;;;24.14;52.33;100961.78;5078651;27;67392;-78
2021/09/10 10:53:00;;;;;;;;;0.00;0.00;;;;;24.73;53.74;100998.09;5085798;27;45313;-81
2021/09/10 10:55:36;;;;;;;;;1.00;0.00;;;;;24.32;52.50;100900.69;5073331;27;45546;-79
2021/09/10 10:59:07;;;;;;;;;0.00;0.00;;;;;24.95;52.72;101008.63;5064535;28;45636;-80
2021/09/10 11:05:50;;;;;;;;;;;;;;;;;;;;;
2021/09/10 11:12:21;;;;;;;;;0.00;0.00;;;;;25.75;50.08;100997.63;5022087;28;45458;-82
2021/09/10 11:15:25;;;;;;;;;0.00;0.00;;;;;25.72;49.36;100996.94;5029340;28;45304;-82
2021/09/10 11:25:09;;;;;;;;;0.00;0.00;;;;;24.33;50.05;100878.47;5035521;28;45529;-84
2021/09/10 11:31:51;;;;;;;;;0.00;0.00;;;;;23.05;53.40;100815.84;5004457;28;46460;-85
2021/09/10 11:34:50;;;;;;;;;0.00;0.00;;;;;23.94;54.21;101007.84;5058825;28;45399;-85
2021/09/10 11:38:23;;;;;;;;;0.00;0.00;;;;;23.28;55.23;100931.69;5059240;28;45421;-82
2021/09/10 11:44:33;;;;;;;;;0.00;0.00;;;;;22.95;56.21;100864.94;5020198;28;45629;-81
2021/09/10 11:47:47;;;;;;;;;0.00;0.00;;;;;22.76;55.06;100808.19;5026922;28;45890;-82
2021/09/10 11:57:30;;;;;;;;;0.00;0.00;;;;;24.01;53.85;100932.19;5060188;28;46129;-82
2021/09/10 12:00:38;;;;;;;;;0.00;0.00;;;;;24.58;54.12;101000.56;5068044;28;45416;-80
2021/09/10 12:07:21;;;;;;;;;;;;;;;;;;;;;
2021/09/10 12:16:39;;;;;;;;;0.00;0.00;;;;;24.48;51.33;100843.16;4967191;28;45521;-86
2021/09/10 12:23:01;;;;;;;;;;;;;;;;;;;;;
2021/09/10 12:26:03;;;;;;;;;0.00;0.00;;;;;25.11;50.64;100942.16;5101381;27;72988;-80
2021/09/10 12:32:16;;;;;;;;;;;;;;;;;;;;;
2021/09/10 12:52:33;;;;;;;;;0.00;0.00;;;;;23.78;51.18;100748.03;5034619;27;45652;-85
2021/09/10 13:02:06;;;;;;;;;0.00;0.00;;;;;25.64;49.00;100962.69;5059653;28;46136;-85
2021/09/10 13:22:49;;;;;;;;;0.00;0.00;;;;;25.14;47.09;100832.00;5041819;28;45566;-84
2021/09/10 13:25:51;;;;;;;;;0.00;0.00;;;;;25.76;48.13;100959.38;5055995;28;45469;-83
2021/09/10 13:28:56;;;;;;;;;0.00;0.00;;;;;25.70;47.71;100962.38;5033524;27;46102;-81
2021/09/10 13:34:55;;;;;;;;;0.00;0.00;;;;;24.41;48.22;100817.81;5044500;28;46225;-85
2021/09/10 13:37:20;;;;;;;;;0.00;0.00;;;;;24.83;49.64;100918.69;5037731;28;45797;-87
2021/09/10 13:39:56;;;;;;;;;0.75;0.00;;;;;24.11;50.40;100835.13;5037259;28;46737;-83
2021/09/10 13:42:25;;;;;;;;;0.50;0.00;;;;;24.91;52.54;100994.63;5051802;28;45487;-85
2021/09/10 13:44:50;;;;;;;;;0.00;0.00;;;;;24.45;53.45;100932.88;5078061;27;45475;-82
2021/09/10 13:47:28;;;;;;;;;0.00;0.00;;;;;23.94;53.39;100851.00;5080501;28;45564;-83
2021/09/10 13:50:49;;;;;;;;;0.00;0.00;;;;;24.02;53.90;100860.34;5073160;27;47018;-83
2021/09/10 13:53:20;;;;;;;;;0.00;0.00;;;;;24.50;54.47;100907.78;5054870;27;46216;-84
2021/09/10 13:55:46;;;;;;;;;0.00;0.00;;;;;24.33;55.02;100884.66;5090201;27;46516;-79
2021/09/10 13:58:14;;;;;;;;;0.00;0.00;;;;;25.11;54.46;100987.44;5076466;27;45610;-82
2021/09/10 14:00:40;;;;;;;;;0.00;0.00;;;;;24.49;54.16;100891.91;5075587;27;45792;-81
2021/09/10 14:03:05;;;;;;;;;0.00;0.00;;;;;24.41;54.10;100871.84;5080587;27;45481;-81
2021/09/10 14:05:33;;;;;;;;;0.00;0.00;;;;;24.73;53.47;100907.63;5078375;27;45488;-84
2021/09/10 14:07:58;;;;;;;;;0.00;0.00;;;;;24.82;53.23;100922.28;5080332;27;45391;-82
2021/09/10 14:10:59;;;;;;;;;0.00;0.00;;;;;25.29;52.89;100984.81;5095969;27;47924;-81
2021/09/10 14:13:25;;;;;;;;;0.00;0.00;;;;;25.18;52.26;100934.75;5080370;27;46131;-84
2021/09/10 14:15:56;;;;;;;;;0.00;0.00;;;;;25.06;52.64;100901.59;5080447;27;45624;-82
2021/09/10 14:18:33;;;;;;;;;0.00;0.00;;;;;25.21;52.15;100912.41;5088833;27;45421;-82
2021/09/10 14:21:49;;;;;;;;;0.00;0.00;;;;;25.10;52.01;100891.66;5073079;27;47713;-83
2021/09/10 14:24:17;;;;;;;;;0.00;0.00;;;;;24.72;52.07;100842.03;5072945;27;46598;-84
2021/09/10 14:33:44;;;;;;;;;;;;;;;;;;;;;
2021/09/10 14:36:35;;;;;;;;;0.00;0.00;;;;;24.20;52.04;100793.97;5017588;28;71920;-81
2021/09/10 14:49:59;;;;;;;;;0.00;0.00;;;;;24.82;52.11;100893.00;4959374;28;45639;-79
2021/09/10 14:53:04;;;;;;;;;;;;;;;;;;;;;
2021/09/10 14:56:13;;;;;;;;;0.00;0.00;;;;;24.34;51.57;100782.63;4960132;28;61604;-85
2021/09/10 15:02:36;;;;;;;;;0.00;0.00;;;;;25.15;51.15;100841.69;4896940;29;45546;-83
2021/09/10 15:05:34;;;;;;;;;0.00;0.00;;;;;25.93;50.04;100917.63;4891100;28;45504;-81
2021/09/10 15:08:21;;;;;;;;;0.00;0.00;;;;;25.54;49.55;100843.19;4999592;28;45315;-81
2021/09/10 15:10:46;;;;;;;;;0.00;0.00;;;;;25.86;49.64;100894.91;5008358;28;47320;-79
2021/09/10 15:13:12;;;;;;;;;0.00;0.00;;;;;26.11;48.78;100894.44;5084044;27;45667;-79
2021/09/10 15:15:52;;;;;;;;;0.00;0.00;;;;;25.79;48.71;100811.75;5088369;27;45467;-79
2021/09/10 15:19:08;;;;;;;;;0.00;0.00;;;;;26.21;49.38;100864.59;5090165;27;45227;-79
2021/09/10 15:30:09;;;;;;;;;;;;;;;;;;;;;
2021/09/10 15:36:39;;;;;;;;;0.00;0.00;;;;;23.73;53.30;100881.13;5064360;27;46059;-83
2021/09/10 15:39:43;;;;;;;;;0.00;0.00;;;;;23.50;53.57;100871.50;5066284;27;45591;-80
2021/09/10 15:42:11;;;;;;;;;0.00;0.00;;;;;23.53;54.46;100896.16;5081648;27;46511;-81
2021/09/10 15:45:20;;;;;;;;;0.00;0.00;;;;;23.01;54.71;100833.72;5076680;27;45421;-81
2021/09/10 15:48:34;;;;;;;;;;;;;;;;;;;;;
2021/09/10 15:54:10;;;;;;;;;0.00;0.00;;;;;23.95;55.07;100999.75;5079891;27;46262;-81
2021/09/10 15:57:14;;;;;;;;;0.75;0.00;;;;;24.05;54.64;101042.78;5075668;27;45621;-82
2021/09/10 16:00:02;;;;;;;;;0.00;0.00;;;;;23.08;54.92;100927.22;5084513;27;46088;-82
2021/09/10 16:10:23;;;;;;;;;0.00;0.00;;;;;23.44;55.75;100989.53;5104077;27;44943;-83
2021/09/10 16:16:33;;;;;;;;;0.00;0.00;;;;;22.69;56.04;100888.97;4987210;28;45611;-85
2021/09/10 16:19:04;;;;;;;;;0.00;0.00;;;;;22.60;55.99;100882.25;5031972;28;45492;-84
2021/09/10 16:21:29;;;;;;;;;0.25;0.00;;;;;22.73;56.29;100911.78;5042984;28;45473;-81
2021/09/10 16:23:55;;;;;;;;;0.00;0.00;;;;;23.15;56.39;100959.69;5068017;27;46204;-81
2021/09/10 16:26:20;;;;;;;;;0.00;0.00;;;;;23.08;56.60;100974.13;5084444;27;45439;-80
2021/09/10 16:40:02;;;;;;;;;;;;;;;;;;;;;
2021/09/10 16:43:16;;;;;;;;;;;;;;;;;;;;;
2021/09/10 16:46:04;;;;;;;;;;;;;;;;;;;;;
2021/09/10 16:52:38;;;;;;;;;0.00;0.00;;;;;23.09;58.91;101059.03;5089019;27;45779;-84
2021/09/10 16:55:30;;;;;;;;;0.25;0.00;;;;;22.11;58.72;100877.88;5022062;28;46295;-90
2021/09/10 16:58:58;;;;;;;;;0.00;0.00;;;;;22.56;59.23;100943.38;5013748;28;45655;-84
2021/09/10 17:12:08;;;;;;;;;0.00;0.00;;;;;22.00;59.54;100886.25;5096340;27;45461;-84
2021/09/10 17:14:53;;;;;;;;;0.25;0.00;;;;;23.19;59.11;101079.91;5081601;27;45627;-86
2021/09/10 17:17:51;;;;;;;;;0.00;0.00;;;;;23.22;58.67;101093.94;5082687;27;45479;-86
2021/09/10 17:21:15;;;;;;;;;;;;;;;;;;;;;
2021/09/10 17:31:26;;;;;;;;;0.00;0.00;;;;;23.23;58.61;101095.66;4964110;28;45447;-86
2021/09/10 17:34:47;;;;;;;;;0.00;0.00;;;;;23.20;58.09;101106.41;5025823;28;45261;-82
2021/09/10 17:41:31;;;;;;;;;0.00;0.00;;;;;23.02;57.50;101102.66;4966692;28;47088;-84
2021/09/10 17:44:38;;;;;;;;;0.00;0.00;;;;;21.72;57.67;100912.84;4998366;28;45673;-84
2021/09/10 17:47:20;;;;;;;;;0.00;0.00;;;;;22.86;58.11;101113.00;4976374;28;45448;-86
2021/09/10 17:51:14;;;;;;;;;;;;;;;;;;;;;
2021/09/10 17:54:22;;;;;;;;;0.00;0.00;;;;;22.73;58.93;101134.66;5011798;28;74560;-84
2021/09/10 17:57:45;;;;;;;;;0.00;0.00;;;;;22.68;58.48;101139.28;5057257;28;45421;-85
2021/09/10 18:01:00;;;;;;;;;0.00;0.00;;;;;22.63;58.92;101150.06;5036914;28;45629;-84
2021/09/10 18:03:52;;;;;;;;;0.00;0.00;;;;;21.55;58.62;100974.34;5044538;28;45687;-84
2021/09/10 18:07:13;;;;;;;;;0.00;0.00;;;;;22.58;58.50;101149.38;5042270;28;45687;-86
2021/09/10 18:20:38;;;;;;;;;0.00;0.00;;;;;22.45;59.50;101156.84;5074145;27;45499;-86
2021/09/10 18:23:46;;;;;;;;;;;;;;;;;;;;;
2021/09/10 18:27:12;;;;;;;;;;;;;;;;;;;;;
2021/09/10 18:30:17;;;;;;;;;0.00;0.00;;;;;22.30;59.65;101162.69;5064194;27;62212;-84
2021/09/10 18:39:56;;;;;;;;;0.00;0.00;;;;;20.93;60.02;100961.34;5026435;28;46096;-81
2021/09/10 18:42:30;;;;;;;;;0.00;0.00;;;;;21.20;59.75;101017.84;5082071;27;45475;-82
2021/09/10 18:44:59;;;;;;;;;0.00;0.00;;;;;20.67;59.65;100949.78;5091225;27;45725;-83
2021/09/10 18:47:25;;;;;;;;;0.00;0.00;;;;;21.80;60.13;101138.69;5081474;28;45228;-85
2021/09/10 18:49:59;;;;;;;;;0.00;0.00;;;;;20.83;59.79;100998.63;5064095;28;45753;-82
2021/09/10 18:52:25;;;;;;;;;0.00;0.00;;;;;21.54;60.09;101110.34;5096867;27;46754;-82
2021/09/10 18:54:54;;;;;;;;;0.00;0.00;;;;;21.20;59.98;101059.31;5098855;27;46347;-83
2021/09/10 18:57:30;;;;;;;;;0.75;0.00;;;;;21.27;60.34;101097.91;5094744;27;45563;-84
2021/09/10 19:04:20;;;;;;;;;0.00;0.00;;;;;20.85;60.65;101070.00;5079457;27;45704;-81
2021/09/10 19:07:28;;;;;;;;;0.00;0.00;;;;;20.70;60.86;101058.13;5006252;28;45511;-83
2021/09/10 19:10:03;;;;;;;;;0.00;0.00;;;;;20.43;61.36;101026.25;5058804;28;45225;-82
2021/09/10 19:12:41;;;;;;;;;0.00;0.00;;;;;20.74;61.70;101094.16;5094011;27;45549;-82
2021/09/10 19:15:15;;;;;;;;;0.00;0.00;;;;;21.05;61.30;101146.22;5100116;27;45447;-83
2021/09/10 19:17:54;;;;;;;;;0.00;0.00;;;;;20.44;61.84;101038.56;5065351;27;46855;-82
2021/09/10 19:20:19;;;;;;;;;0.00;0.00;;;;;20.56;61.45;101069.06;5071064;27;45765;-80
2021/09/10 19:22:59;;;;;;;;;0.00;0.00;;;;;21.41;61.56;101194.59;5113012;27;45527;-81
2021/09/10 19:25:25;;;;;;;;;0.00;0.00;;;;;21.18;61.08;101159.94;5091302;27;45908;-80
2021/09/10 19:28:47;;;;;;;;;0.00;0.00;;;;;21.65;60.37;101246.84;5106938;27;46413;-83
2021/09/10 19:31:58;;;;;;;;;0.00;0.00;;;;;20.53;60.44;101083.25;5052801;28;45584;-81
2021/09/10 19:35:12;;;;;;;;;0.00;0.00;;;;;20.37;60.83;101065.16;5037463;27;46837;-79
2021/09/10 19:37:51;;;;;;;;;0.00;0.00;;;;;20.31;60.70;101075.94;5002500;28;46257;-81
2021/09/10 19:40:19;;;;;;;;;0.00;0.00;;;;;20.37;61.30;101102.16;5060861;28;45666;-81
2021/09/10 19:42:45;;;;;;;;;0.00;0.00;;;;;21.14;61.69;101238.56;5061813;27;45706;-82
2021/09/10 19:45:34;;;;;;;;;0.00;0.00;;;;;20.84;61.60;101189.97;5080561;27;45464;-81
2021/09/10 19:47:59;;;;;;;;;0.00;0.00;;;;;19.88;61.24;101031.16;5081159;28;45485;-79
2021/09/10 19:51:09;;;;;;;;;0.00;0.00;;;;;21.27;61.52;101277.94;5064842;28;45411;-80
2021/09/10 19:54:01;;;;;;;;;0.00;0.00;;;;;21.37;61.66;101266.19;5102786;27;45249;-79